sensor_id;sensor_type;location;lat;lon;timestamp;P1;durP1;ratioP1;P2;durP2;ratioP2
33690;SDS011;20026;50.058;18.428;2023-02-26T00:00:58;23.10;;;14.25;;
33690;SDS011;20026;50.058;18.428;2023-02-26T00:03:24;22.95;;;14.65;;
33690;SDS011;20026;50.058;18.428;2023-02-26T00:05:50;27.52;;;14.57;;
33690;SDS011;20026;50.058;18.428;2023-02-26T00:08:16;29.13;;;15.25;;
33690;SDS011;20026;50.058;18.428;2023-02-26T00:10:42;26.13;;;15.60;;
33690;SDS011;20026;50.058;18.428;2023-02-26T00:13:09;22.10;;;12.82;;
33690;SDS011;20026;50.058;18.428;2023-02-26T00:15:36;27.42;;;13.82;;
33690;SDS011;20026;50.058;18.428;2023-02-26T00:18:06;23.88;;;13.18;;
33690;SDS011;20026;50.058;18.428;2023-02-26T00:20:32;27.40;;;12.63;;
33690;SDS011;20026;50.058;18.428;2023-02-26T00:22:58;36.33;;;18.75;;
33690;SDS011;20026;50.058;18.428;2023-02-26T00:25:24;40.45;;;20.90;;
33690;SDS011;20026;50.058;18.428;2023-02-26T00:27:50;43.33;;;21.17;;
33690;SDS011;20026;50.058;18.428;2023-02-26T00:30:16;28.58;;;15.93;;
33690;SDS011;20026;50.058;18.428;2023-02-26T00:32:43;20.98;;;11.00;;
33690;SDS011;20026;50.058;18.428;2023-02-26T00:35:13;18.67;;;10.65;;
33690;SDS011;20026;50.058;18.428;2023-02-26T00:40:33;18.50;;;9.52;;
33690;SDS011;20026;50.058;18.428;2023-02-26T00:43:00;21.50;;;10.05;;
33690;SDS011;20026;50.058;18.428;2023-02-26T00:45:26;20.45;;;11.35;;
33690;SDS011;20026;50.058;18.428;2023-02-26T00:48:04;23.83;;;10.02;;
33690;SDS011;20026;50.058;18.428;2023-02-26T00:50:32;25.70;;;9.93;;
33690;SDS011;20026;50.058;18.428;2023-02-26T00:53:17;30.17;;;10.93;;
33690;SDS011;20026;50.058;18.428;2023-02-26T00:55:46;22.77;;;9.70;;
33690;SDS011;20026;50.058;18.428;2023-02-26T00:58:12;31.42;;;12.02;;
33690;SDS011;20026;50.058;18.428;2023-02-26T01:00:38;23.77;;;10.02;;
33690;SDS011;20026;50.058;18.428;2023-02-26T01:03:04;19.20;;;8.77;;
33690;SDS011;20026;50.058;18.428;2023-02-26T01:05:30;14.80;;;8.07;;
33690;SDS011;20026;50.058;18.428;2023-02-26T01:10:38;23.95;;;10.48;;
33690;SDS011;20026;50.058;18.428;2023-02-26T01:13:04;21.88;;;10.40;;
33690;SDS011;20026;50.058;18.428;2023-02-26T01:15:30;32.72;;;14.05;;
33690;SDS011;20026;50.058;18.428;2023-02-26T01:18:10;32.75;;;14.35;;
33690;SDS011;20026;50.058;18.428;2023-02-26T01:20:42;41.08;;;15.50;;
33690;SDS011;20026;50.058;18.428;2023-02-26T01:23:14;35.78;;;13.77;;
33690;SDS011;20026;50.058;18.428;2023-02-26T01:25:54;29.10;;;11.35;;
33690;SDS011;20026;50.058;18.428;2023-02-26T01:28:21;40.30;;;14.38;;
33690;SDS011;20026;50.058;18.428;2023-02-26T01:30:48;29.48;;;11.73;;
33690;SDS011;20026;50.058;18.428;2023-02-26T01:33:24;24.80;;;11.43;;
33690;SDS011;20026;50.058;18.428;2023-02-26T01:35:52;22.67;;;9.95;;
33690;SDS011;20026;50.058;18.428;2023-02-26T01:43:24;20.90;;;10.57;;
33690;SDS011;20026;50.058;18.428;2023-02-26T01:46:13;26.38;;;12.52;;
33690;SDS011;20026;50.058;18.428;2023-02-26T01:51:16;24.83;;;12.00;;
33690;SDS011;20026;50.058;18.428;2023-02-26T01:53:42;30.38;;;12.38;;
33690;SDS011;20026;50.058;18.428;2023-02-26T01:56:10;21.42;;;10.35;;
33690;SDS011;20026;50.058;18.428;2023-02-26T02:01:04;26.55;;;12.00;;
33690;SDS011;20026;50.058;18.428;2023-02-26T02:03:32;23.30;;;11.85;;
33690;SDS011;20026;50.058;18.428;2023-02-26T02:06:08;22.20;;;12.85;;
33690;SDS011;20026;50.058;18.428;2023-02-26T02:08:36;24.15;;;12.13;;
33690;SDS011;20026;50.058;18.428;2023-02-26T02:11:03;22.63;;;12.75;;
33690;SDS011;20026;50.058;18.428;2023-02-26T02:16:11;17.42;;;11.18;;
33690;SDS011;20026;50.058;18.428;2023-02-26T02:26:26;19.73;;;12.88;;
33690;SDS011;20026;50.058;18.428;2023-02-26T02:29:08;23.95;;;13.43;;
33690;SDS011;20026;50.058;18.428;2023-02-26T02:31:44;26.38;;;14.50;;
33690;SDS011;20026;50.058;18.428;2023-02-26T02:36:42;31.83;;;16.65;;
33690;SDS011;20026;50.058;18.428;2023-02-26T02:39:14;31.42;;;17.02;;
33690;SDS011;20026;50.058;18.428;2023-02-26T02:41:52;33.58;;;17.25;;
33690;SDS011;20026;50.058;18.428;2023-02-26T02:44:19;33.03;;;16.95;;
33690;SDS011;20026;50.058;18.428;2023-02-26T02:46:48;30.48;;;17.02;;
33690;SDS011;20026;50.058;18.428;2023-02-26T02:49:17;29.75;;;15.48;;
33690;SDS011;20026;50.058;18.428;2023-02-26T02:56:38;22.58;;;13.68;;
33690;SDS011;20026;50.058;18.428;2023-02-26T03:01:43;22.08;;;12.68;;
33690;SDS011;20026;50.058;18.428;2023-02-26T03:04:11;23.75;;;13.38;;
33690;SDS011;20026;50.058;18.428;2023-02-26T03:06:39;16.20;;;9.98;;
33690;SDS011;20026;50.058;18.428;2023-02-26T03:09:06;21.92;;;12.52;;
33690;SDS011;20026;50.058;18.428;2023-02-26T03:11:32;21.13;;;11.98;;
33690;SDS011;20026;50.058;18.428;2023-02-26T03:13:58;22.52;;;12.05;;
33690;SDS011;20026;50.058;18.428;2023-02-26T03:26:39;23.25;;;13.63;;
33690;SDS011;20026;50.058;18.428;2023-02-26T03:29:15;22.30;;;12.50;;
33690;SDS011;20026;50.058;18.428;2023-02-26T03:31:54;19.73;;;11.15;;
33690;SDS011;20026;50.058;18.428;2023-02-26T03:34:40;17.90;;;10.77;;
33690;SDS011;20026;50.058;18.428;2023-02-26T03:37:16;19.67;;;9.82;;
33690;SDS011;20026;50.058;18.428;2023-02-26T03:39:46;16.95;;;11.10;;
33690;SDS011;20026;50.058;18.428;2023-02-26T03:42:15;19.20;;;10.57;;
33690;SDS011;20026;50.058;18.428;2023-02-26T03:47:10;13.30;;;8.18;;
33690;SDS011;20026;50.058;18.428;2023-02-26T03:52:09;18.73;;;9.00;;
33690;SDS011;20026;50.058;18.428;2023-02-26T03:57:32;16.85;;;8.80;;
33690;SDS011;20026;50.058;18.428;2023-02-26T03:59:58;21.25;;;9.07;;
33690;SDS011;20026;50.058;18.428;2023-02-26T04:02:26;24.42;;;11.43;;
33690;SDS011;20026;50.058;18.428;2023-02-26T04:04:59;21.00;;;10.13;;
33690;SDS011;20026;50.058;18.428;2023-02-26T04:07:26;16.35;;;8.90;;
33690;SDS011;20026;50.058;18.428;2023-02-26T04:09:52;23.73;;;9.55;;
33690;SDS011;20026;50.058;18.428;2023-02-26T04:12:19;16.70;;;9.10;;
33690;SDS011;20026;50.058;18.428;2023-02-26T04:14:46;20.83;;;10.43;;
33690;SDS011;20026;50.058;18.428;2023-02-26T04:17:11;21.17;;;9.55;;
33690;SDS011;20026;50.058;18.428;2023-02-26T04:19:37;28.92;;;12.63;;
33690;SDS011;20026;50.058;18.428;2023-02-26T04:22:03;21.75;;;10.52;;
33690;SDS011;20026;50.058;18.428;2023-02-26T04:24:29;22.00;;;11.27;;
33690;SDS011;20026;50.058;18.428;2023-02-26T04:26:55;19.30;;;10.38;;
33690;SDS011;20026;50.058;18.428;2023-02-26T04:29:21;28.55;;;11.95;;
33690;SDS011;20026;50.058;18.428;2023-02-26T04:31:47;24.10;;;11.80;;
33690;SDS011;20026;50.058;18.428;2023-02-26T04:34:13;24.30;;;12.85;;
33690;SDS011;20026;50.058;18.428;2023-02-26T04:36:39;23.30;;;11.68;;
33690;SDS011;20026;50.058;18.428;2023-02-26T04:39:05;21.02;;;11.18;;
33690;SDS011;20026;50.058;18.428;2023-02-26T04:41:34;16.25;;;10.25;;
33690;SDS011;20026;50.058;18.428;2023-02-26T04:44:00;23.65;;;10.73;;
33690;SDS011;20026;50.058;18.428;2023-02-26T04:46:27;17.65;;;10.50;;
33690;SDS011;20026;50.058;18.428;2023-02-26T04:48:53;24.02;;;12.18;;
33690;SDS011;20026;50.058;18.428;2023-02-26T04:51:19;13.95;;;8.57;;
33690;SDS011;20026;50.058;18.428;2023-02-26T04:53:45;12.25;;;7.03;;
33690;SDS011;20026;50.058;18.428;2023-02-26T04:56:12;13.77;;;6.75;;
33690;SDS011;20026;50.058;18.428;2023-02-26T04:58:38;12.77;;;7.00;;
33690;SDS011;20026;50.058;18.428;2023-02-26T05:01:04;13.02;;;7.65;;
33690;SDS011;20026;50.058;18.428;2023-02-26T05:03:30;17.52;;;8.02;;
33690;SDS011;20026;50.058;18.428;2023-02-26T05:05:56;19.40;;;10.45;;
33690;SDS011;20026;50.058;18.428;2023-02-26T05:08:22;25.25;;;12.50;;
33690;SDS011;20026;50.058;18.428;2023-02-26T05:10:49;26.20;;;12.52;;
33690;SDS011;20026;50.058;18.428;2023-02-26T05:13:15;25.98;;;11.27;;
33690;SDS011;20026;50.058;18.428;2023-02-26T05:15:41;21.80;;;10.30;;
33690;SDS011;20026;50.058;18.428;2023-02-26T05:18:07;22.30;;;11.00;;
33690;SDS011;20026;50.058;18.428;2023-02-26T05:20:33;23.15;;;11.05;;
33690;SDS011;20026;50.058;18.428;2023-02-26T05:22:59;54.50;;;22.58;;
33690;SDS011;20026;50.058;18.428;2023-02-26T05:25:25;66.70;;;29.50;;
33690;SDS011;20026;50.058;18.428;2023-02-26T05:27:51;70.82;;;29.30;;
33690;SDS011;20026;50.058;18.428;2023-02-26T05:30:17;55.42;;;23.25;;
33690;SDS011;20026;50.058;18.428;2023-02-26T05:32:43;42.42;;;19.85;;
33690;SDS011;20026;50.058;18.428;2023-02-26T05:35:09;47.95;;;21.77;;
33690;SDS011;20026;50.058;18.428;2023-02-26T05:37:36;28.08;;;17.30;;
33690;SDS011;20026;50.058;18.428;2023-02-26T05:40:03;20.73;;;11.60;;
33690;SDS011;20026;50.058;18.428;2023-02-26T05:42:29;36.22;;;17.63;;
33690;SDS011;20026;50.058;18.428;2023-02-26T05:44:55;19.52;;;11.70;;
33690;SDS011;20026;50.058;18.428;2023-02-26T05:47:21;21.45;;;11.00;;
33690;SDS011;20026;50.058;18.428;2023-02-26T05:49:47;18.40;;;9.43;;
33690;SDS011;20026;50.058;18.428;2023-02-26T05:52:13;21.50;;;11.75;;
33690;SDS011;20026;50.058;18.428;2023-02-26T05:54:39;19.42;;;9.85;;
33690;SDS011;20026;50.058;18.428;2023-02-26T05:57:05;21.77;;;11.45;;
33690;SDS011;20026;50.058;18.428;2023-02-26T05:59:31;22.17;;;10.68;;
33690;SDS011;20026;50.058;18.428;2023-02-26T06:01:57;24.85;;;12.43;;
33690;SDS011;20026;50.058;18.428;2023-02-26T06:04:23;23.13;;;12.43;;
33690;SDS011;20026;50.058;18.428;2023-02-26T06:06:49;25.70;;;13.25;;
33690;SDS011;20026;50.058;18.428;2023-02-26T06:09:15;23.52;;;12.13;;
33690;SDS011;20026;50.058;18.428;2023-02-26T06:11:41;23.98;;;12.70;;
33690;SDS011;20026;50.058;18.428;2023-02-26T06:14:07;24.30;;;12.55;;
33690;SDS011;20026;50.058;18.428;2023-02-26T06:16:33;32.08;;;15.27;;
33690;SDS011;20026;50.058;18.428;2023-02-26T06:19:00;27.02;;;15.10;;
33690;SDS011;20026;50.058;18.428;2023-02-26T06:21:26;25.83;;;12.02;;
33690;SDS011;20026;50.058;18.428;2023-02-26T06:23:52;27.40;;;14.45;;
33690;SDS011;20026;50.058;18.428;2023-02-26T06:26:18;25.08;;;11.80;;
33690;SDS011;20026;50.058;18.428;2023-02-26T06:28:44;25.20;;;12.23;;
33690;SDS011;20026;50.058;18.428;2023-02-26T06:31:10;25.10;;;12.82;;
33690;SDS011;20026;50.058;18.428;2023-02-26T06:33:36;23.45;;;13.32;;
33690;SDS011;20026;50.058;18.428;2023-02-26T06:36:02;24.50;;;13.48;;
33690;SDS011;20026;50.058;18.428;2023-02-26T06:38:28;27.80;;;13.77;;
33690;SDS011;20026;50.058;18.428;2023-02-26T06:40:54;28.48;;;13.75;;
33690;SDS011;20026;50.058;18.428;2023-02-26T06:43:20;27.42;;;14.18;;
33690;SDS011;20026;50.058;18.428;2023-02-26T06:45:46;27.55;;;15.30;;
33690;SDS011;20026;50.058;18.428;2023-02-26T06:48:12;25.85;;;14.65;;
33690;SDS011;20026;50.058;18.428;2023-02-26T06:50:38;24.50;;;12.45;;
33690;SDS011;20026;50.058;18.428;2023-02-26T06:53:04;23.25;;;12.38;;
33690;SDS011;20026;50.058;18.428;2023-02-26T06:55:30;19.83;;;10.95;;
33690;SDS011;20026;50.058;18.428;2023-02-26T06:57:56;20.90;;;12.38;;
33690;SDS011;20026;50.058;18.428;2023-02-26T07:00:23;22.83;;;12.20;;
33690;SDS011;20026;50.058;18.428;2023-02-26T07:02:49;28.95;;;15.57;;
33690;SDS011;20026;50.058;18.428;2023-02-26T07:05:16;26.73;;;14.00;;
33690;SDS011;20026;50.058;18.428;2023-02-26T07:07:42;29.98;;;15.00;;
33690;SDS011;20026;50.058;18.428;2023-02-26T07:10:09;29.42;;;16.17;;
33690;SDS011;20026;50.058;18.428;2023-02-26T07:12:35;31.10;;;16.63;;
33690;SDS011;20026;50.058;18.428;2023-02-26T07:15:02;28.80;;;15.05;;
33690;SDS011;20026;50.058;18.428;2023-02-26T07:17:28;30.50;;;16.20;;
33690;SDS011;20026;50.058;18.428;2023-02-26T07:19:54;37.65;;;20.48;;
33690;SDS011;20026;50.058;18.428;2023-02-26T07:22:20;30.25;;;16.63;;
33690;SDS011;20026;50.058;18.428;2023-02-26T07:24:46;36.03;;;20.98;;
33690;SDS011;20026;50.058;18.428;2023-02-26T07:27:13;27.95;;;15.73;;
33690;SDS011;20026;50.058;18.428;2023-02-26T07:29:39;35.90;;;18.83;;
33690;SDS011;20026;50.058;18.428;2023-02-26T07:32:05;37.83;;;19.83;;
33690;SDS011;20026;50.058;18.428;2023-02-26T07:34:31;32.92;;;17.77;;
33690;SDS011;20026;50.058;18.428;2023-02-26T07:36:58;40.28;;;21.33;;
33690;SDS011;20026;50.058;18.428;2023-02-26T07:39:24;34.63;;;19.40;;
33690;SDS011;20026;50.058;18.428;2023-02-26T07:41:51;34.17;;;16.50;;
33690;SDS011;20026;50.058;18.428;2023-02-26T07:44:17;29.88;;;16.63;;
33690;SDS011;20026;50.058;18.428;2023-02-26T07:46:43;29.48;;;16.27;;
33690;SDS011;20026;50.058;18.428;2023-02-26T07:49:09;23.92;;;13.50;;
33690;SDS011;20026;50.058;18.428;2023-02-26T07:51:35;32.38;;;17.33;;
33690;SDS011;20026;50.058;18.428;2023-02-26T07:54:01;29.33;;;15.77;;
33690;SDS011;20026;50.058;18.428;2023-02-26T07:56:27;35.30;;;20.48;;
33690;SDS011;20026;50.058;18.428;2023-02-26T07:58:53;53.40;;;25.63;;
33690;SDS011;20026;50.058;18.428;2023-02-26T08:01:20;55.47;;;24.52;;
33690;SDS011;20026;50.058;18.428;2023-02-26T08:03:46;34.28;;;18.10;;
33690;SDS011;20026;50.058;18.428;2023-02-26T08:06:12;38.45;;;20.95;;
33690;SDS011;20026;50.058;18.428;2023-02-26T08:08:38;37.15;;;21.50;;
33690;SDS011;20026;50.058;18.428;2023-02-26T08:11:04;41.90;;;24.75;;
33690;SDS011;20026;50.058;18.428;2023-02-26T08:13:30;44.55;;;24.70;;
33690;SDS011;20026;50.058;18.428;2023-02-26T08:15:56;39.17;;;24.23;;
33690;SDS011;20026;50.058;18.428;2023-02-26T08:18:22;41.88;;;26.25;;
33690;SDS011;20026;50.058;18.428;2023-02-26T08:20:49;44.15;;;27.70;;
33690;SDS011;20026;50.058;18.428;2023-02-26T08:23:16;57.85;;;30.05;;
33690;SDS011;20026;50.058;18.428;2023-02-26T08:25:42;69.22;;;26.38;;
33690;SDS011;20026;50.058;18.428;2023-02-26T08:28:09;43.53;;;22.23;;
33690;SDS011;20026;50.058;18.428;2023-02-26T08:30:35;48.25;;;27.77;;
33690;SDS011;20026;50.058;18.428;2023-02-26T08:33:01;82.93;;;36.92;;
33690;SDS011;20026;50.058;18.428;2023-02-26T08:35:27;78.50;;;33.25;;
33690;SDS011;20026;50.058;18.428;2023-02-26T08:37:53;57.22;;;26.27;;
33690;SDS011;20026;50.058;18.428;2023-02-26T08:40:19;78.38;;;31.73;;
33690;SDS011;20026;50.058;18.428;2023-02-26T08:42:46;42.95;;;23.95;;
33690;SDS011;20026;50.058;18.428;2023-02-26T08:45:12;56.95;;;28.98;;
33690;SDS011;20026;50.058;18.428;2023-02-26T08:47:38;62.05;;;31.83;;
33690;SDS011;20026;50.058;18.428;2023-02-26T08:50:07;63.83;;;30.73;;
33690;SDS011;20026;50.058;18.428;2023-02-26T08:52:33;67.13;;;34.08;;
33690;SDS011;20026;50.058;18.428;2023-02-26T08:54:59;61.28;;;31.88;;
33690;SDS011;20026;50.058;18.428;2023-02-26T08:57:25;57.25;;;30.33;;
33690;SDS011;20026;50.058;18.428;2023-02-26T08:59:52;55.08;;;30.23;;
33690;SDS011;20026;50.058;18.428;2023-02-26T09:02:18;50.65;;;25.35;;
33690;SDS011;20026;50.058;18.428;2023-02-26T09:04:44;59.63;;;27.25;;
33690;SDS011;20026;50.058;18.428;2023-02-26T09:07:11;47.80;;;25.10;;
33690;SDS011;20026;50.058;18.428;2023-02-26T09:09:37;20.83;;;12.27;;
33690;SDS011;20026;50.058;18.428;2023-02-26T09:12:04;27.92;;;14.18;;
33690;SDS011;20026;50.058;18.428;2023-02-26T09:14:30;27.58;;;15.73;;
33690;SDS011;20026;50.058;18.428;2023-02-26T09:16:56;47.50;;;24.48;;
33690;SDS011;20026;50.058;18.428;2023-02-26T09:19:22;41.88;;;23.63;;
33690;SDS011;20026;50.058;18.428;2023-02-26T09:21:48;34.25;;;17.88;;
33690;SDS011;20026;50.058;18.428;2023-02-26T09:24:14;36.05;;;14.55;;
33690;SDS011;20026;50.058;18.428;2023-02-26T09:26:40;19.85;;;10.68;;
33690;SDS011;20026;50.058;18.428;2023-02-26T09:29:06;13.60;;;6.63;;
33690;SDS011;20026;50.058;18.428;2023-02-26T09:31:32;15.93;;;7.18;;
33690;SDS011;20026;50.058;18.428;2023-02-26T09:33:58;23.02;;;10.00;;
33690;SDS011;20026;50.058;18.428;2023-02-26T09:36:24;17.63;;;9.27;;
33690;SDS011;20026;50.058;18.428;2023-02-26T09:38:51;13.80;;;7.55;;
33690;SDS011;20026;50.058;18.428;2023-02-26T09:41:25;20.48;;;9.75;;
33690;SDS011;20026;50.058;18.428;2023-02-26T09:49:01;23.77;;;10.00;;
33690;SDS011;20026;50.058;18.428;2023-02-26T09:51:28;33.00;;;14.13;;
33690;SDS011;20026;50.058;18.428;2023-02-26T09:53:55;56.13;;;26.85;;
33690;SDS011;20026;50.058;18.428;2023-02-26T09:56:24;25.60;;;15.48;;
33690;SDS011;20026;50.058;18.428;2023-02-26T09:58:53;23.27;;;15.00;;
33690;SDS011;20026;50.058;18.428;2023-02-26T10:01:22;26.98;;;15.05;;
33690;SDS011;20026;50.058;18.428;2023-02-26T10:12:05;15.95;;;8.02;;
33690;SDS011;20026;50.058;18.428;2023-02-26T10:14:34;17.80;;;7.93;;
33690;SDS011;20026;50.058;18.428;2023-02-26T10:17:02;11.68;;;6.07;;
33690;SDS011;20026;50.058;18.428;2023-02-26T10:19:31;12.65;;;6.82;;
33690;SDS011;20026;50.058;18.428;2023-02-26T10:24:49;12.85;;;5.93;;
33690;SDS011;20026;50.058;18.428;2023-02-26T10:27:18;10.37;;;4.57;;
33690;SDS011;20026;50.058;18.428;2023-02-26T10:29:55;13.45;;;5.40;;
33690;SDS011;20026;50.058;18.428;2023-02-26T10:35:05;14.85;;;6.45;;
33690;SDS011;20026;50.058;18.428;2023-02-26T10:40:07;11.18;;;5.65;;
33690;SDS011;20026;50.058;18.428;2023-02-26T10:42:41;15.82;;;6.50;;
33690;SDS011;20026;50.058;18.428;2023-02-26T10:45:12;15.15;;;7.68;;
33690;SDS011;20026;50.058;18.428;2023-02-26T10:47:48;12.73;;;6.45;;
33690;SDS011;20026;50.058;18.428;2023-02-26T10:50:16;25.98;;;10.65;;
33690;SDS011;20026;50.058;18.428;2023-02-26T10:52:44;13.00;;;6.28;;
33690;SDS011;20026;50.058;18.428;2023-02-26T10:57:51;15.85;;;7.25;;
33690;SDS011;20026;50.058;18.428;2023-02-26T11:00:19;17.58;;;7.43;;
33690;SDS011;20026;50.058;18.428;2023-02-26T11:02:47;16.27;;;7.20;;
33690;SDS011;20026;50.058;18.428;2023-02-26T11:05:17;28.85;;;11.82;;
33690;SDS011;20026;50.058;18.428;2023-02-26T11:07:44;33.20;;;10.85;;
33690;SDS011;20026;50.058;18.428;2023-02-26T11:10:13;15.75;;;6.75;;
33690;SDS011;20026;50.058;18.428;2023-02-26T11:12:39;18.15;;;8.10;;
33690;SDS011;20026;50.058;18.428;2023-02-26T11:15:21;14.60;;;7.75;;
33690;SDS011;20026;50.058;18.428;2023-02-26T11:17:48;24.23;;;10.52;;
33690;SDS011;20026;50.058;18.428;2023-02-26T11:22:45;21.17;;;8.27;;
33690;SDS011;20026;50.058;18.428;2023-02-26T11:25:13;27.60;;;10.55;;
33690;SDS011;20026;50.058;18.428;2023-02-26T11:27:39;40.15;;;13.43;;
33690;SDS011;20026;50.058;18.428;2023-02-26T11:30:17;28.92;;;10.45;;
33690;SDS011;20026;50.058;18.428;2023-02-26T11:32:44;20.42;;;7.97;;
33690;SDS011;20026;50.058;18.428;2023-02-26T11:35:12;21.52;;;9.15;;
33690;SDS011;20026;50.058;18.428;2023-02-26T11:37:40;41.20;;;18.08;;
33690;SDS011;20026;50.058;18.428;2023-02-26T11:40:17;18.83;;;9.25;;
33690;SDS011;20026;50.058;18.428;2023-02-26T11:42:46;28.20;;;13.80;;
33690;SDS011;20026;50.058;18.428;2023-02-26T11:47:39;21.50;;;9.07;;
33690;SDS011;20026;50.058;18.428;2023-02-26T11:50:13;25.25;;;12.15;;
33690;SDS011;20026;50.058;18.428;2023-02-26T11:52:42;24.35;;;10.98;;
33690;SDS011;20026;50.058;18.428;2023-02-26T11:55:25;40.40;;;14.13;;
33690;SDS011;20026;50.058;18.428;2023-02-26T11:57:53;24.33;;;10.80;;
33690;SDS011;20026;50.058;18.428;2023-02-26T12:00:20;34.42;;;12.63;;
33690;SDS011;20026;50.058;18.428;2023-02-26T12:02:48;26.70;;;12.10;;
33690;SDS011;20026;50.058;18.428;2023-02-26T12:05:15;31.55;;;15.00;;
33690;SDS011;20026;50.058;18.428;2023-02-26T12:07:41;35.70;;;14.60;;
33690;SDS011;20026;50.058;18.428;2023-02-26T12:10:17;52.15;;;15.75;;
33690;SDS011;20026;50.058;18.428;2023-02-26T12:12:55;88.25;;;24.17;;
33690;SDS011;20026;50.058;18.428;2023-02-26T12:15:41;63.67;;;22.27;;
33690;SDS011;20026;50.058;18.428;2023-02-26T12:18:15;87.68;;;29.83;;
33690;SDS011;20026;50.058;18.428;2023-02-26T12:23:25;28.95;;;10.90;;
33690;SDS011;20026;50.058;18.428;2023-02-26T12:33:37;18.08;;;8.60;;
33690;SDS011;20026;50.058;18.428;2023-02-26T12:43:52;33.17;;;11.40;;
33690;SDS011;20026;50.058;18.428;2023-02-26T13:10:00;10.88;;;5.13;;
33690;SDS011;20026;50.058;18.428;2023-02-26T13:17:40;29.45;;;10.80;;
33690;SDS011;20026;50.058;18.428;2023-02-26T13:20:12;19.85;;;9.55;;
33690;SDS011;20026;50.058;18.428;2023-02-26T13:25:37;12.35;;;6.72;;
33690;SDS011;20026;50.058;18.428;2023-02-26T13:30:51;33.33;;;11.05;;
33690;SDS011;20026;50.058;18.428;2023-02-26T13:33:22;16.63;;;7.07;;
33690;SDS011;20026;50.058;18.428;2023-02-26T13:35:50;11.20;;;5.55;;
33690;SDS011;20026;50.058;18.428;2023-02-26T13:41:06;26.20;;;10.32;;
33690;SDS011;20026;50.058;18.428;2023-02-26T13:48:57;69.03;;;25.13;;
33690;SDS011;20026;50.058;18.428;2023-02-26T13:53:59;50.23;;;22.50;;
33690;SDS011;20026;50.058;18.428;2023-02-26T14:01:48;75.90;;;28.00;;
33690;SDS011;20026;50.058;18.428;2023-02-26T14:06:44;27.13;;;11.20;;
33690;SDS011;20026;50.058;18.428;2023-02-26T14:22:17;31.93;;;11.60;;
33690;SDS011;20026;50.058;18.428;2023-02-26T14:24:45;42.50;;;15.57;;
33690;SDS011;20026;50.058;18.428;2023-02-26T14:29:43;35.83;;;12.60;;
33690;SDS011;20026;50.058;18.428;2023-02-26T14:32:30;16.85;;;8.35;;
33690;SDS011;20026;50.058;18.428;2023-02-26T14:37:45;24.95;;;10.77;;
33690;SDS011;20026;50.058;18.428;2023-02-26T14:40:13;33.72;;;13.30;;
33690;SDS011;20026;50.058;18.428;2023-02-26T14:42:42;37.53;;;15.32;;
33690;SDS011;20026;50.058;18.428;2023-02-26T14:45:16;38.58;;;14.98;;
33690;SDS011;20026;50.058;18.428;2023-02-26T14:47:43;30.35;;;12.55;;
33690;SDS011;20026;50.058;18.428;2023-02-26T14:50:14;16.63;;;8.40;;
33690;SDS011;20026;50.058;18.428;2023-02-26T14:52:50;24.33;;;11.30;;
33690;SDS011;20026;50.058;18.428;2023-02-26T15:00:48;12.45;;;5.30;;
33690;SDS011;20026;50.058;18.428;2023-02-26T15:16:41;15.93;;;8.35;;
33690;SDS011;20026;50.058;18.428;2023-02-26T15:21:56;36.67;;;15.32;;
33690;SDS011;20026;50.058;18.428;2023-02-26T15:24:24;36.77;;;14.30;;
33690;SDS011;20026;50.058;18.428;2023-02-26T15:26:52;24.42;;;9.55;;
33690;SDS011;20026;50.058;18.428;2023-02-26T15:29:20;32.65;;;13.48;;
33690;SDS011;20026;50.058;18.428;2023-02-26T15:31:54;70.85;;;24.92;;
33690;SDS011;20026;50.058;18.428;2023-02-26T15:34:21;129.50;;;52.45;;
33690;SDS011;20026;50.058;18.428;2023-02-26T15:36:50;35.30;;;14.90;;
33690;SDS011;20026;50.058;18.428;2023-02-26T15:39:18;41.75;;;19.73;;
33690;SDS011;20026;50.058;18.428;2023-02-26T15:41:47;61.22;;;25.52;;
33690;SDS011;20026;50.058;18.428;2023-02-26T15:46:40;45.25;;;18.65;;
33690;SDS011;20026;50.058;18.428;2023-02-26T15:49:08;40.15;;;16.20;;
33690;SDS011;20026;50.058;18.428;2023-02-26T15:51:35;35.20;;;15.05;;
33690;SDS011;20026;50.058;18.428;2023-02-26T15:54:02;34.70;;;16.05;;
33690;SDS011;20026;50.058;18.428;2023-02-26T15:56:31;25.98;;;11.73;;
33690;SDS011;20026;50.058;18.428;2023-02-26T15:58:58;35.37;;;14.47;;
33690;SDS011;20026;50.058;18.428;2023-02-26T16:01:26;27.48;;;12.93;;
33690;SDS011;20026;50.058;18.428;2023-02-26T16:03:56;37.08;;;16.30;;
33690;SDS011;20026;50.058;18.428;2023-02-26T16:06:34;42.15;;;18.77;;
33690;SDS011;20026;50.058;18.428;2023-02-26T16:09:00;39.58;;;16.92;;
33690;SDS011;20026;50.058;18.428;2023-02-26T16:11:28;44.78;;;18.30;;
33690;SDS011;20026;50.058;18.428;2023-02-26T16:13:57;50.83;;;21.05;;
33690;SDS011;20026;50.058;18.428;2023-02-26T16:16:24;47.78;;;19.40;;
33690;SDS011;20026;50.058;18.428;2023-02-26T16:18:51;66.18;;;24.75;;
33690;SDS011;20026;50.058;18.428;2023-02-26T16:21:29;56.35;;;22.45;;
33690;SDS011;20026;50.058;18.428;2023-02-26T16:23:56;53.67;;;21.77;;
33690;SDS011;20026;50.058;18.428;2023-02-26T16:26:25;45.20;;;19.58;;
33690;SDS011;20026;50.058;18.428;2023-02-26T16:28:55;50.75;;;19.30;;
33690;SDS011;20026;50.058;18.428;2023-02-26T16:31:23;46.75;;;18.92;;
33690;SDS011;20026;50.058;18.428;2023-02-26T16:36:39;59.75;;;25.13;;
33690;SDS011;20026;50.058;18.428;2023-02-26T16:41:33;45.97;;;18.67;;
33690;SDS011;20026;50.058;18.428;2023-02-26T16:44:00;34.78;;;13.45;;
33690;SDS011;20026;50.058;18.428;2023-02-26T16:46:32;46.00;;;17.92;;
33690;SDS011;20026;50.058;18.428;2023-02-26T16:49:01;44.63;;;18.63;;
33690;SDS011;20026;50.058;18.428;2023-02-26T16:51:29;37.70;;;15.65;;
33690;SDS011;20026;50.058;18.428;2023-02-26T16:53:59;39.53;;;16.88;;
33690;SDS011;20026;50.058;18.428;2023-02-26T16:56:33;34.22;;;15.10;;
33690;SDS011;20026;50.058;18.428;2023-02-26T16:59:04;65.53;;;24.65;;
33690;SDS011;20026;50.058;18.428;2023-02-26T17:01:34;53.53;;;21.67;;
33690;SDS011;20026;50.058;18.428;2023-02-26T17:04:00;65.30;;;25.20;;
33690;SDS011;20026;50.058;18.428;2023-02-26T17:06:28;179.93;;;69.03;;
33690;SDS011;20026;50.058;18.428;2023-02-26T17:08:59;123.75;;;53.25;;
33690;SDS011;20026;50.058;18.428;2023-02-26T17:16:46;93.30;;;39.38;;
33690;SDS011;20026;50.058;18.428;2023-02-26T17:19:12;84.38;;;39.22;;
33690;SDS011;20026;50.058;18.428;2023-02-26T17:21:42;81.00;;;34.90;;
33690;SDS011;20026;50.058;18.428;2023-02-26T17:24:19;96.57;;;39.75;;
33690;SDS011;20026;50.058;18.428;2023-02-26T17:26:45;92.53;;;39.45;;
33690;SDS011;20026;50.058;18.428;2023-02-26T17:29:16;90.55;;;31.77;;
33690;SDS011;20026;50.058;18.428;2023-02-26T17:31:43;75.95;;;27.25;;
33690;SDS011;20026;50.058;18.428;2023-02-26T17:34:10;67.57;;;27.38;;
33690;SDS011;20026;50.058;18.428;2023-02-26T17:36:36;73.13;;;30.48;;
33690;SDS011;20026;50.058;18.428;2023-02-26T17:39:02;73.32;;;28.40;;
33690;SDS011;20026;50.058;18.428;2023-02-26T17:41:28;73.47;;;27.63;;
33690;SDS011;20026;50.058;18.428;2023-02-26T17:43:54;79.15;;;28.70;;